Urjupinsk, Russia
Current Conditions -  °F | °C
As of 12:30 PM on Friday 31 Oct 2014 (Local Time) from UUOO Reporting Station
Light Rain Light Rain  
Wind Chill: 39°   Ceiling: 5000
Heat Index: 43°   Visibility: 2.8mi
Dew Point: 28°   Wind: 7mph
Humidity: 57%   Direction: 210°SSW
Pressure: 30.09"   Gusts: NA
Location:  50.78°N, 42°E
Report Text: UUOO 310930Z 21003MPS 4500 -RA BKN050 06/M02 Q1019 NOSIG RMK 12290155
Loading
Personal Weather Stations






























Interactive Weather Map
Tropical Storm Tracking
New forecast layout! Learn more

10-Day Weather Forecast

Advertisements
Track Severe Weather on mobile